Time;durP1;ratioP1;P1;durP2;ratioP2;P2;SDS_P1;SDS_P2;PMS_P1;PMS_P2;Temp;Humidity;BMP_temperature;BMP_pressure;BME280_temperature;BME280_humidity;BME280_pressure;Samples;Min_cycle;Max_cycle;Signal;HPM_P1;HPM_P2
2023/05/29 00:00:35;;;;;;;;;;;;;;;13.60;100.00;-18393.78;4991478;28;19928;-78
2023/05/29 00:03:01;;;;;;;;;;;;;;;13.42;100.00;-18389.13;5004595;28;19930;-78
2023/05/29 00:05:26;;;;;;;;;;;;;;;13.39;100.00;-18388.19;5000435;28;19918;-78
2023/05/29 00:07:52;;;;;;;;;;;;;;;13.51;100.00;-18391.47;5001223;28;19951;-78
2023/05/29 00:10:17;;;;;;;;;;;;;;;13.52;100.00;-18391.75;5010110;28;19917;-78
2023/05/29 00:12:42;;;;;;;;;;;;;;;13.47;100.00;-18390.50;4992644;28;19965;-78
2023/05/29 00:15:09;;;;;;;;;;;;;;;13.37;100.00;-18387.63;5010381;28;19952;-78
2023/05/29 00:17:34;;;;;;;;;;;;;;;13.28;100.00;-18385.44;4988291;28;19984;-78
2023/05/29 00:20:01;;;;;;;;;;;;;;;13.26;100.00;-18384.88;5007729;28;20005;-77
2023/05/29 00:22:27;;;;;;;;;;;;;;;13.21;100.00;-18383.50;4999431;28;19918;-78
2023/05/29 00:24:52;;;;;;;;;;;;;;;13.30;100.00;-18385.84;4998083;28;19928;-78
2023/05/29 00:27:17;;;;;;;;;;;;;;;13.28;100.00;-18385.44;5010179;28;19928;-79
2023/05/29 00:29:42;;;;;;;;;;;;;;;13.27;100.00;-18385.03;4989869;28;19925;-78
2023/05/29 00:32:08;;;;;;;;;;;;;;;13.23;100.00;-18383.91;4993438;28;19926;-78
2023/05/29 00:34:33;;;;;;;;;;;;;;;13.21;100.00;-18383.50;4999869;28;19921;-78
2023/05/29 00:36:58;;;;;;;;;;;;;;;13.19;100.00;-18382.97;5008662;28;20310;-78
2023/05/29 00:39:24;;;;;;;;;;;;;;;13.26;100.00;-18384.88;5003070;28;20333;-78
2023/05/29 00:41:51;;;;;;;;;;;;;;;13.14;100.00;-18381.59;4979730;28;19921;-78
2023/05/29 00:44:17;;;;;;;;;;;;;;;13.23;100.00;-18383.91;5001153;28;19928;-78
2023/05/29 00:46:43;;;;;;;;;;;;;;;13.20;100.00;-18383.22;5009587;28;19921;-78
2023/05/29 00:49:08;;;;;;;;;;;;;;;13.09;100.00;-18380.22;4984413;28;20334;-78
2023/05/29 00:51:33;;;;;;;;;;;;;;;13.15;100.00;-18381.88;4995663;28;19922;-78
2023/05/29 00:53:59;;;;;;;;;;;;;;;13.26;100.00;-18384.88;5000899;28;19941;-78
2023/05/29 00:56:25;;;;;;;;;;;;;;;13.10;100.00;-18380.50;4990474;28;20748;-78
2023/05/29 00:58:51;;;;;;;;;;;;;;;13.00;100.00;-18377.75;4980772;28;19918;-78
2023/05/29 01:01:21;;;;;;;;;;;;;;;12.96;100.00;-18376.66;4994293;28;20278;-78
2023/05/29 01:03:48;;;;;;;;;;;;;;;12.97;100.00;-18377.06;4983698;28;19918;-78
2023/05/29 01:06:14;;;;;;;;;;;;;;;12.86;100.00;-18374.19;4992850;28;20595;-78
2023/05/29 01:08:39;;;;;;;;;;;;;;;13.02;100.00;-18378.31;5001771;28;19945;-78
2023/05/29 01:11:08;;;;;;;;;;;;;;;12.99;100.00;-18377.47;5006130;28;19926;-78
2023/05/29 01:13:35;;;;;;;;;;;;;;;12.96;100.00;-18376.66;5002946;28;19925;-78
2023/05/29 01:16:17;;;;;;;;;;;;;;;12.90;100.00;-18375.16;5002353;28;20024;-78
2023/05/29 01:18:51;;;;;;;;;;;;;;;12.80;100.00;-18372.41;4987001;28;19941;-78
2023/05/29 01:21:16;;;;;;;;;;;;;;;12.81;100.00;-18372.69;5002299;28;19925;-78
2023/05/29 01:24:00;;;;;;;;;;;;;;;12.65;100.00;-18368.44;5003089;28;19922;-78
2023/05/29 01:26:32;;;;;;;;;;;;;;;12.63;100.00;-18367.88;5004981;28;19932;-78
2023/05/29 01:29:00;;;;;;;;;;;;;;;12.61;100.00;-18367.34;5001949;28;19929;-78
2023/05/29 01:31:26;;;;;;;;;;;;;;;12.59;100.00;-18366.78;5006065;28;19925;-78
2023/05/29 01:33:52;;;;;;;;;;;;;;;12.50;100.00;-18364.31;5001350;28;19984;-78
2023/05/29 01:36:17;;;;;;;;;;;;;;;12.53;100.00;-18365.13;5004471;28;20463;-78
2023/05/29 01:38:43;;;;;;;;;;;;;;;12.51;100.00;-18364.59;5003050;28;19969;-79
2023/05/29 01:41:08;;;;;;;;;;;;;;;12.39;100.00;-18361.44;5004511;28;19921;-79
2023/05/29 01:43:34;;;;;;;;;;;;;;;12.42;100.00;-18362.41;5004084;28;20483;-78
2023/05/29 01:45:59;;;;;;;;;;;;;;;12.44;100.00;-18362.66;5004671;28;19960;-79
2023/05/29 01:48:25;;;;;;;;;;;;;;;12.37;100.00;-18360.88;5004467;28;19921;-79
2023/05/29 01:50:50;;;;;;;;;;;;;;;12.26;100.00;-18357.88;5004310;28;19926;-79
2023/05/29 01:53:16;;;;;;;;;;;;;;;12.30;100.00;-18358.97;5004721;28;19925;-79
2023/05/29 01:55:41;;;;;;;;;;;;;;;12.27;100.00;-18358.16;5004527;28;19933;-79
2023/05/29 01:58:07;;;;;;;;;;;;;;;12.23;100.00;-18357.19;4988102;28;19930;-79
2023/05/29 02:00:32;;;;;;;;;;;;;;;12.31;100.00;-18359.38;5003143;28;19956;-79
2023/05/29 02:02:57;;;;;;;;;;;;;;;12.31;100.00;-18359.38;5003827;28;19922;-79
2023/05/29 02:05:23;;;;;;;;;;;;;;;12.22;100.00;-18356.91;5003277;28;19928;-79
2023/05/29 02:07:48;;;;;;;;;;;;;;;12.26;100.00;-18358.00;5004170;28;19917;-79
2023/05/29 02:10:13;;;;;;;;;;;;;;;12.20;100.00;-18356.38;5004309;28;20355;-78
2023/05/29 02:12:38;;;;;;;;;;;;;;;12.08;100.00;-18353.06;5008632;28;19979;-79
2023/05/29 02:15:04;;;;;;;;;;;;;;;12.05;100.00;-18352.25;5007135;28;19929;-79
2023/05/29 02:17:30;;;;;;;;;;;;;;;12.11;100.00;-18354.03;5004118;28;19921;-79
2023/05/29 02:19:56;;;;;;;;;;;;;;;12.21;100.00;-18356.63;5008111;28;19936;-79
2023/05/29 02:22:21;;;;;;;;;;;;;;;12.17;100.00;-18355.53;5006622;28;19921;-79
2023/05/29 02:24:46;;;;;;;;;;;;;;;12.17;100.00;-18355.53;5008442;28;19918;-79
2023/05/29 02:27:11;;;;;;;;;;;;;;;12.29;100.00;-18358.84;5009195;28;19925;-79
2023/05/29 02:29:37;;;;;;;;;;;;;;;12.27;100.00;-18358.28;4990663;28;19925;-79
2023/05/29 02:32:02;;;;;;;;;;;;;;;12.25;100.00;-18357.59;5009405;28;19925;-78
2023/05/29 02:34:27;;;;;;;;;;;;;;;12.23;100.00;-18357.19;5009148;28;20609;-79
2023/05/29 02:36:53;;;;;;;;;;;;;;;12.21;100.00;-18356.50;5007225;28;19918;-79
2023/05/29 02:39:19;;;;;;;;;;;;;;;12.29;100.00;-18358.69;5006455;28;19922;-78
2023/05/29 02:41:44;;;;;;;;;;;;;;;12.28;100.00;-18358.56;5001910;28;20020;-79
2023/05/29 02:44:09;;;;;;;;;;;;;;;12.25;100.00;-18357.72;4985035;28;19993;-79
2023/05/29 02:46:34;;;;;;;;;;;;;;;12.26;100.00;-18357.88;5004065;28;20277;-79
2023/05/29 02:49:00;;;;;;;;;;;;;;;12.22;100.00;-18356.78;5002375;28;19924;-79
2023/05/29 02:51:25;;;;;;;;;;;;;;;12.30;100.00;-18359.09;5003733;28;19921;-79
2023/05/29 02:53:50;;;;;;;;;;;;;;;12.27;100.00;-18358.28;5002587;28;19983;-79
2023/05/29 02:56:16;;;;;;;;;;;;;;;12.25;100.00;-18357.72;4998473;28;19928;-78
2023/05/29 02:58:41;;;;;;;;;;;;;;;12.19;100.00;-18356.09;4999429;28;19924;-79
2023/05/29 03:01:06;;;;;;;;;;;;;;;12.30;100.00;-18359.09;4988812;28;21220;-78
2023/05/29 03:03:32;;;;;;;;;;;;;;;12.04;100.00;-18352.09;5001921;28;19926;-78
2023/05/29 03:05:57;;;;;;;;;;;;;;;12.17;100.00;-18355.69;5004554;28;19933;-78
2023/05/29 03:08:23;;;;;;;;;;;;;;;12.23;100.00;-18357.03;5004327;28;20440;-78
2023/05/29 03:10:49;;;;;;;;;;;;;;;12.12;100.00;-18354.31;5007719;28;20359;-79
2023/05/29 03:13:14;;;;;;;;;;;;;;;11.76;100.00;-18344.56;5008694;28;19921;-80
2023/05/29 03:15:39;;;;;;;;;;;;;;;11.81;100.00;-18345.94;5007212;28;19964;-78
2023/05/29 03:18:04;;;;;;;;;;;;;;;11.77;100.00;-18344.84;5007135;28;19925;-78
2023/05/29 03:20:30;;;;;;;;;;;;;;;11.77;100.00;-18344.69;5006401;28;19941;-78
2023/05/29 03:22:55;;;;;;;;;;;;;;;11.70;100.00;-18343.03;5007174;28;19952;-79
2023/05/29 03:25:20;;;;;;;;;;;;;;;11.88;100.00;-18347.84;5009433;28;19987;-79
2023/05/29 03:27:46;;;;;;;;;;;;;;;11.40;100.00;-18334.81;5007436;28;19934;-78
2023/05/29 03:30:11;;;;;;;;;;;;;;;11.40;100.00;-18334.94;5006943;28;20571;-78
2023/05/29 03:32:36;;;;;;;;;;;;;;;11.23;100.00;-18330.41;5007262;28;20470;-78
2023/05/29 03:35:03;;;;;;;;;;;;;;;11.29;100.00;-18332.06;5009381;28;19925;-78
2023/05/29 03:37:28;;;;;;;;;;;;;;;11.30;100.00;-18332.19;4989508;28;19918;-79
2023/05/29 03:39:53;;;;;;;;;;;;;;;11.22;100.00;-18330.00;5007147;28;20349;-79
2023/05/29 03:42:19;;;;;;;;;;;;;;;11.11;100.00;-18326.97;5008030;28;19947;-79
2023/05/29 03:44:44;;;;;;;;;;;;;;;11.19;100.00;-18329.19;5006991;28;19971;-78
2023/05/29 03:47:10;;;;;;;;;;;;;;;11.21;100.00;-18329.88;5009609;28;19918;-78
2023/05/29 03:49:35;;;;;;;;;;;;;;;11.23;100.00;-18330.28;5006611;28;19921;-78
2023/05/29 03:52:00;;;;;;;;;;;;;;;11.26;100.00;-18331.25;5006524;28;19917;-78
2023/05/29 03:54:26;;;;;;;;;;;;;;;11.38;100.00;-18334.25;4991252;28;19952;-79
2023/05/29 03:56:51;;;;;;;;;;;;;;;11.26;100.00;-18331.09;5005529;28;19925;-78
2023/05/29 03:59:16;;;;;;;;;;;;;;;11.29;100.00;-18332.06;5004922;28;19926;-79
2023/05/29 04:01:42;;;;;;;;;;;;;;;11.16;100.00;-18328.50;4977906;28;19921;-78
2023/05/29 04:04:07;;;;;;;;;;;;;;;11.17;100.00;-18328.78;4988442;28;19918;-78
2023/05/29 04:06:32;;;;;;;;;;;;;;;11.30;100.00;-18332.19;4985308;28;20270;-77
2023/05/29 04:08:57;;;;;;;;;;;;;;;11.37;100.00;-18334.00;4986800;28;20582;-78
2023/05/29 04:11:23;;;;;;;;;;;;;;;11.29;100.00;-18331.94;4971008;28;19954;-78
2023/05/29 04:13:48;;;;;;;;;;;;;;;11.43;100.00;-18335.63;4985349;28;20486;-78
2023/05/29 04:16:14;;;;;;;;;;;;;;;11.36;100.00;-18333.84;4986708;28;19921;-78
2023/05/29 04:18:39;;;;;;;;;;;;;;;11.40;100.00;-18334.81;4984031;28;19949;-78
2023/05/29 04:21:05;;;;;;;;;;;;;;;11.46;100.00;-18336.59;4970454;28;19922;-78
2023/05/29 04:23:30;;;;;;;;;;;;;;;11.57;100.00;-18339.47;4987489;28;19925;-78
2023/05/29 04:25:56;;;;;;;;;;;;;;;11.52;100.00;-18338.09;4986093;28;19918;-78
2023/05/29 04:28:21;;;;;;;;;;;;;;;11.62;100.00;-18340.72;4985375;28;19967;-78
2023/05/29 04:30:46;;;;;;;;;;;;;;;11.57;100.00;-18339.34;4981487;28;19988;-79
2023/05/29 04:33:12;;;;;;;;;;;;;;;11.56;100.00;-18339.19;4986869;28;19930;-78
2023/05/29 04:35:37;;;;;;;;;;;;;;;11.66;100.00;-18341.94;4986333;28;19925;-78
2023/05/29 04:38:04;;;;;;;;;;;;;;;11.81;100.00;-18345.78;4986722;28;19918;-78
2023/05/29 04:40:31;;;;;;;;;;;;;;;11.58;100.00;-18339.75;4986130;28;20349;-78
2023/05/29 04:43:00;;;;;;;;;;;;;;;11.61;100.00;-18340.56;4988083;28;20313;-79
2023/05/29 04:45:25;;;;;;;;;;;;;;;11.71;100.00;-18343.19;4965385;28;19917;-78
2023/05/29 04:47:52;;;;;;;;;;;;;;;11.71;100.00;-18343.19;4985641;28;19968;-79
2023/05/29 04:50:17;;;;;;;;;;;;;;;11.80;100.00;-18345.66;4987913;28;19950;-79
2023/05/29 04:52:43;;;;;;;;;;;;;;;11.79;100.00;-18345.38;5001181;28;19945;-79
2023/05/29 04:55:08;;;;;;;;;;;;;;;11.83;100.00;-18346.47;4987883;28;20385;-78
2023/05/29 04:57:34;;;;;;;;;;;;;;;11.93;100.00;-18349.22;4983345;28;19984;-78
2023/05/29 04:59:59;;;;;;;;;;;;;;;11.84;100.00;-18346.63;4984371;28;19929;-78
2023/05/29 05:02:24;;;;;;;;;;;;;;;11.95;100.00;-18349.78;4984601;28;19945;-79
2023/05/29 05:04:50;;;;;;;;;;;;;;;12.00;100.00;-18350.88;4985156;28;19922;-78
2023/05/29 05:07:15;;;;;;;;;;;;;;;12.15;100.00;-18355.13;4985221;28;19917;-78
2023/05/29 05:09:41;;;;;;;;;;;;;;;12.27;100.00;-18358.28;4986841;28;19918;-79
2023/05/29 05:12:06;;;;;;;;;;;;;;;12.36;100.00;-18360.75;5004923;28;20020;-79
2023/05/29 05:14:32;;;;;;;;;;;;;;;12.53;100.00;-18365.13;5003043;28;19921;-78
2023/05/29 05:16:57;;;;;;;;;;;;;;;12.47;100.00;-18363.50;5006894;28;19986;-78
2023/05/29 05:19:22;;;;;;;;;;;;;;;12.67;100.00;-18368.97;5003416;28;19955;-78
2023/05/29 05:21:47;;;;;;;;;;;;;;;12.49;100.00;-18364.03;5004404;28;20008;-78
2023/05/29 05:24:12;;;;;;;;;;;;;;;12.67;100.00;-18368.97;4987564;28;19953;-79
2023/05/29 05:26:38;;;;;;;;;;;;;;;12.78;100.00;-18371.88;5004319;28;19975;-79
2023/05/29 05:29:03;;;;;;;;;;;;;;;12.85;100.00;-18373.91;5006395;28;19921;-78
2023/05/29 05:31:28;;;;;;;;;;;;;;;12.81;100.00;-18372.69;5006014;28;19965;-78
2023/05/29 05:33:53;;;;;;;;;;;;;;;12.93;100.00;-18375.84;5004640;28;19933;-78
2023/05/29 05:36:19;;;;;;;;;;;;;;;12.87;100.00;-18374.31;4986707;28;19925;-78
2023/05/29 05:38:45;;;;;;;;;;;;;;;12.84;100.00;-18373.50;4986181;28;19917;-78
2023/05/29 05:41:10;;;;;;;;;;;;;;;12.79;100.00;-18372.28;4988782;28;19918;-78
2023/05/29 05:43:36;;;;;;;;;;;;;;;12.78;100.00;-18372.00;5004447;28;19921;-79
2023/05/29 05:46:01;;;;;;;;;;;;;;;12.85;100.00;-18373.78;5005745;28;19917;-78
2023/05/29 05:48:26;;;;;;;;;;;;;;;12.95;100.00;-18376.53;5005239;28;20377;-79
2023/05/29 05:50:52;;;;;;;;;;;;;;;12.93;100.00;-18375.97;4988094;28;20013;-78
2023/05/29 05:53:17;;;;;;;;;;;;;;;13.04;100.00;-18378.84;5006466;28;20373;-79
2023/05/29 05:55:43;;;;;;;;;;;;;;;13.22;100.00;-18383.78;5005237;28;20016;-78
2023/05/29 05:58:08;;;;;;;;;;;;;;;13.23;100.00;-18384.06;5005719;28;19925;-78
2023/05/29 06:00:33;;;;;;;;;;;;;;;13.24;100.00;-18384.19;5003616;28;20352;-78
2023/05/29 06:03:00;;;;;;;;;;;;;;;13.29;100.00;-18385.56;4985554;28;19960;-78
2023/05/29 06:05:25;;;;;;;;;;;;;;;13.13;100.00;-18381.31;5003083;28;19967;-79
2023/05/29 06:07:50;;;;;;;;;;;;;;;12.80;100.00;-18372.41;5004498;28;20000;-78
2023/05/29 06:10:16;;;;;;;;;;;;;;;13.14;100.00;-18381.47;5002735;28;19948;-78
2023/05/29 06:12:41;;;;;;;;;;;;;;;13.14;100.00;-18381.47;4984158;28;19925;-79
2023/05/29 06:15:06;;;;;;;;;;;;;;;12.88;100.00;-18374.59;5004988;28;19999;-78
2023/05/29 06:17:32;;;;;;;;;;;;;;;13.03;100.00;-18378.72;5005765;28;20008;-78
2023/05/29 06:19:57;;;;;;;;;;;;;;;13.26;100.00;-18384.88;5001672;28;19924;-78
2023/05/29 06:22:22;;;;;;;;;;;;;;;13.26;100.00;-18384.88;5004391;28;19995;-78
2023/05/29 06:24:47;;;;;;;;;;;;;;;13.49;100.00;-18391.06;5003695;28;19917;-78
2023/05/29 06:27:13;;;;;;;;;;;;;;;13.24;100.00;-18384.34;5006370;28;19922;-78
2023/05/29 06:29:38;;;;;;;;;;;;;;;13.17;100.00;-18382.28;5002665;28;19925;-79
2023/05/29 06:32:03;;;;;;;;;;;;;;;13.17;100.00;-18382.41;4987942;28;19939;-79
2023/05/29 06:34:28;;;;;;;;;;;;;;;13.29;100.00;-18385.56;5003387;28;19930;-79
2023/05/29 06:36:54;;;;;;;;;;;;;;;13.30;100.00;-18385.97;5002254;28;19930;-78
2023/05/29 06:39:20;;;;;;;;;;;;;;;13.24;100.00;-18384.19;5000265;28;19936;-78
2023/05/29 06:41:45;;;;;;;;;;;;;;;13.17;100.00;-18382.28;5004323;28;20004;-77
2023/05/29 06:44:10;;;;;;;;;;;;;;;13.19;100.00;-18382.81;5002232;28;21030;-77
2023/05/29 06:46:35;;;;;;;;;;;;;;;13.32;100.00;-18386.53;5002690;28;19921;-78
2023/05/29 06:49:01;;;;;;;;;;;;;;;13.30;100.00;-18385.97;5001169;28;19925;-78
2023/05/29 06:51:26;;;;;;;;;;;;;;;13.40;100.00;-18388.59;5002891;28;20393;-78
2023/05/29 06:53:51;;;;;;;;;;;;;;;13.60;100.00;-18393.78;5004919;28;19928;-78
2023/05/29 06:56:17;;;;;;;;;;;;;;;13.56;100.00;-18392.84;5004561;28;19969;-78
2023/05/29 06:58:42;;;;;;;;;;;;;;;13.59;100.00;-18393.66;4988235;28;19924;-78
2023/05/29 07:01:07;;;;;;;;;;;;;;;13.73;100.00;-18397.34;5008747;28;19921;-78
2023/05/29 07:03:33;;;;;;;;;;;;;;;13.79;100.00;-18398.88;5007139;28;19922;-77
2023/05/29 07:05:58;;;;;;;;;;;;;;;13.80;100.00;-18399.13;5005313;28;19922;-78
2023/05/29 07:08:24;;;;;;;;;;;;;;;13.83;100.00;-18400.09;5008241;28;19949;-78
2023/05/29 07:10:49;;;;;;;;;;;;;;;13.89;100.00;-18401.75;5004239;28;20025;-78
2023/05/29 07:13:16;;;;;;;;;;;;;;;13.98;100.00;-18404.22;5011022;28;19933;-78
2023/05/29 07:15:41;;;;;;;;;;;;;;;13.98;100.00;-18404.06;5010322;28;20399;-78
2023/05/29 07:18:06;;;;;;;;;;;;;;;13.96;100.00;-18403.66;5009728;28;19922;-78
2023/05/29 07:20:32;;;;;;;;;;;;;;;14.15;100.00;-18408.72;5010488;28;19918;-77
2023/05/29 07:22:57;;;;;;;;;;;;;;;14.16;100.00;-18409.00;4981478;28;19922;-79
2023/05/29 07:25:22;;;;;;;;;;;;;;;14.23;100.00;-18410.91;4990661;28;20686;-78
2023/05/29 07:27:47;;;;;;;;;;;;;;;14.32;100.00;-18413.09;4989387;28;20068;-78
2023/05/29 07:30:13;;;;;;;;;;;;;;;14.39;100.00;-18415.03;4991172;28;20284;-78
2023/05/29 07:32:38;;;;;;;;;;;;;;;14.42;100.00;-18415.84;4989267;28;19992;-78
2023/05/29 07:35:03;;;;;;;;;;;;;;;14.47;100.00;-18417.22;4984288;28;19934;-78
2023/05/29 07:37:30;;;;;;;;;;;;;;;14.43;100.00;-18416.13;4984976;28;19922;-79
2023/05/29 07:39:55;;;;;;;;;;;;;;;14.08;100.00;-18406.66;4991057;28;19959;-79
2023/05/29 07:42:20;;;;;;;;;;;;;;;14.19;100.00;-18409.81;5011845;28;20008;-79
2023/05/29 07:44:45;;;;;;;;;;;;;;;14.29;100.00;-18412.28;5009702;28;19940;-79
2023/05/29 07:47:11;;;;;;;;;;;;;;;14.36;100.00;-18414.19;5007396;28;19922;-79
2023/05/29 07:49:36;;;;;;;;;;;;;;;14.59;100.00;-18420.50;5010550;28;19988;-78
2023/05/29 07:52:05;;;;;;;;;;;;;;;14.37;100.00;-18414.47;5010574;28;19921;-78
2023/05/29 07:54:32;;;;;;;;;;;;;;;14.65;100.00;-18422.00;5001177;28;19929;-78
2023/05/29 07:56:57;;;;;;;;;;;;;;;14.75;100.00;-18424.75;5005647;28;19929;-78
2023/05/29 07:59:23;;;;;;;;;;;;;;;14.83;100.00;-18426.81;4999816;28;20364;-78
2023/05/29 08:01:48;;;;;;;;;;;;;;;14.63;100.00;-18421.59;5007671;28;19933;-79
2023/05/29 08:04:13;;;;;;;;;;;;;;;14.89;100.00;-18428.56;4980060;28;19959;-79
2023/05/29 08:06:42;;;;;;;;;;;;;;;14.74;100.00;-18424.34;4987161;28;20313;-78
2023/05/29 08:09:07;;;;;;;;;;;;;;;14.90;100.00;-18428.72;4980180;28;19929;-78
2023/05/29 08:11:32;;;;;;;;;;;;;;;14.94;100.00;-18429.81;5004569;28;19921;-78
2023/05/29 08:13:57;;;;;;;;;;;;;;;15.14;100.00;-18435.00;4995758;28;19926;-78
2023/05/29 08:16:23;;;;;;;;;;;;;;;15.17;100.00;-18435.97;5004784;28;19932;-79
2023/05/29 08:18:48;;;;;;;;;;;;;;;15.06;100.00;-18433.09;5005426;28;20578;-78
2023/05/29 08:21:13;;;;;;;;;;;;;;;15.31;100.00;-18439.78;5007826;28;19948;-78
2023/05/29 08:23:38;;;;;;;;;;;;;;;15.42;100.00;-18442.53;4989065;28;19933;-78
2023/05/29 08:26:04;;;;;;;;;;;;;;;15.77;98.56;-18452.13;5006060;28;20020;-78
2023/05/29 08:28:29;;;;;;;;;;;;;;;15.88;100.00;-18454.97;5006545;28;20293;-78
2023/05/29 08:30:54;;;;;;;;;;;;;;;15.88;99.94;-18454.97;5002380;28;19929;-78
2023/05/29 08:33:19;;;;;;;;;;;;;;;15.94;97.29;-18456.63;4988717;28;19925;-78
2023/05/29 08:35:44;;;;;;;;;;;;;;;16.07;94.15;-18459.91;5007152;28;20045;-79
2023/05/29 08:38:10;;;;;;;;;;;;;;;15.98;96.07;-18457.56;5006355;28;19917;-79
2023/05/29 08:40:35;;;;;;;;;;;;;;;16.17;92.76;-18462.63;5008806;28;19924;-78
2023/05/29 08:43:04;;;;;;;;;;;;;;;16.16;93.93;-18462.38;5006845;28;20008;-78
2023/05/29 08:45:33;;;;;;;;;;;;;;;16.40;91.05;-18468.94;4988984;28;19949;-78
2023/05/29 08:48:00;;;;;;;;;;;;;;;16.57;91.77;-18473.28;5006264;28;19917;-78
2023/05/29 08:50:25;;;;;;;;;;;;;;;16.79;91.92;-18479.31;5009820;28;19917;-78
2023/05/29 08:52:51;;;;;;;;;;;;;;;17.01;90.33;-18485.19;5010522;28;19929;-79
2023/05/29 08:55:16;;;;;;;;;;;;;;;17.18;88.36;-18489.56;5011568;28;19917;-79
2023/05/29 08:57:43;;;;;;;;;;;;;;;17.14;81.57;-18488.72;4996915;28;19918;-79
2023/05/29 09:00:12;;;;;;;;;;;;;;;17.08;84.85;-18486.97;5003930;28;19964;-78
2023/05/29 09:02:37;;;;;;;;;;;;;;;17.17;78.35;-18489.41;5009994;28;19918;-79
2023/05/29 09:05:03;;;;;;;;;;;;;;;17.10;81.62;-18487.50;5009898;28;19956;-78
2023/05/29 09:07:29;;;;;;;;;;;;;;;16.97;85.06;-18484.09;5004275;28;19976;-78
2023/05/29 09:09:55;;;;;;;;;;;;;;;17.06;84.18;-18486.41;5009081;28;19921;-79
2023/05/29 09:12:20;;;;;;;;;;;;;;;17.27;80.01;-18492.00;5008825;28;19999;-79
2023/05/29 09:14:47;;;;;;;;;;;;;;;17.22;78.94;-18490.78;5010114;28;20016;-80
2023/05/29 09:17:12;;;;;;;;;;;;;;;17.16;77.46;-18489.00;4992820;28;19956;-80
2023/05/29 09:19:40;;;;;;;;;;;;;;;17.29;80.39;-18492.56;4984666;28;19922;-79
2023/05/29 09:22:09;;;;;;;;;;;;;;;17.39;76.69;-18495.16;5014966;28;20444;-78
2023/05/29 09:24:36;;;;;;;;;;;;;;;17.25;81.48;-18491.47;4996301;28;19932;-79
2023/05/29 09:27:02;;;;;;;;;;;;;;;17.25;82.25;-18491.59;4994858;28;19921;-79
2023/05/29 09:29:30;;;;;;;;;;;;;;;17.19;79.09;-18489.97;5002286;28;19928;-79
2023/05/29 09:31:56;;;;;;;;;;;;;;;17.47;76.74;-18497.34;5002548;28;19922;-79
2023/05/29 09:34:23;;;;;;;;;;;;;;;17.63;75.92;-18501.69;5002895;28;20374;-80
2023/05/29 09:36:48;;;;;;;;;;;;;;;17.52;71.75;-18498.84;5001407;28;19917;-79
2023/05/29 09:39:14;;;;;;;;;;;;;;;17.57;76.11;-18500.06;5014012;28;19937;-80
2023/05/29 09:41:43;;;;;;;;;;;;;;;17.68;73.16;-18502.94;5006101;28;19975;-80
2023/05/29 09:44:13;;;;;;;;;;;;;;;17.89;69.42;-18508.66;5009104;28;20400;-79
2023/05/29 09:46:38;;;;;;;;;;;;;;;17.71;72.69;-18503.75;5009574;28;19932;-78
2023/05/29 09:49:10;;;;;;;;;;;;;;;17.66;73.65;-18502.50;5006778;28;20293;-80
2023/05/29 09:51:36;;;;;;;;;;;;;;;17.83;73.05;-18507.03;5008850;28;19917;-80
2023/05/29 09:54:12;;;;;;;;;;;;;;;17.96;69.09;-18510.56;5008028;28;19940;-80
2023/05/29 09:56:37;;;;;;;;;;;;;;;18.07;69.47;-18513.44;5010396;28;19929;-80
2023/05/29 09:59:03;;;;;;;;;;;;;;;18.06;68.07;-18513.03;5007110;28;19930;-79
2023/05/29 10:01:28;;;;;;;;;;;;;;;18.11;70.79;-18514.53;5008388;28;19932;-79
2023/05/29 10:03:54;;;;;;;;;;;;;;;18.26;68.93;-18518.63;5004873;28;19936;-79
2023/05/29 10:06:20;;;;;;;;;;;;;;;18.38;67.06;-18521.63;5003599;28;19925;-79
2023/05/29 10:08:49;;;;;;;;;;;;;;;18.53;68.43;-18525.56;4999880;28;19930;-79
2023/05/29 10:11:17;;;;;;;;;;;;;;;18.72;65.54;-18530.88;5002714;28;19980;-79
2023/05/29 10:13:48;;;;;;;;;;;;;;;18.69;61.58;-18530.06;5001855;28;19936;-80
2023/05/29 10:16:14;;;;;;;;;;;;;;;18.55;63.73;-18526.13;5003248;28;19921;-80
2023/05/29 10:18:41;;;;;;;;;;;;;;;18.81;65.90;-18533.06;4991924;28;19952;-80
2023/05/29 10:21:07;;;;;;;;;;;;;;;18.81;63.40;-18533.06;5003683;28;19929;-80
2023/05/29 10:23:33;;;;;;;;;;;;;;;19.10;63.69;-18540.84;5003544;28;20152;-80
2023/05/29 10:26:04;;;;;;;;;;;;;;;19.05;59.98;-18539.63;5002431;28;20292;-80
2023/05/29 10:28:30;;;;;;;;;;;;;;;19.24;59.69;-18544.66;4998496;28;19925;-80
2023/05/29 10:31:08;;;;;;;;;;;;;;;18.97;57.92;-18537.44;4987372;28;20892;-80
2023/05/29 10:33:40;;;;;;;;;;;;;;;18.65;62.51;-18528.84;4988807;28;20654;-81
2023/05/29 10:36:08;;;;;;;;;;;;;;;18.87;62.11;-18534.72;5005759;28;19971;-81
2023/05/29 10:38:33;;;;;;;;;;;;;;;18.69;58.60;-18530.06;5001025;28;19953;-81
2023/05/29 10:41:17;;;;;;;;;;;;;;;18.96;62.44;-18537.03;4987743;28;19960;-81
2023/05/29 10:43:44;;;;;;;;;;;;;;;19.17;61.28;-18542.75;4987840;28;20723;-82
2023/05/29 10:46:09;;;;;;;;;;;;;;;19.26;61.76;-18545.06;5000988;28;20020;-82
2023/05/29 10:48:38;;;;;;;;;;;;;;;19.31;58.89;-18546.44;5001767;28;19917;-82
2023/05/29 10:51:06;;;;;;;;;;;;;;;19.19;58.51;-18543.16;5003693;28;20376;-82
2023/05/29 10:53:31;;;;;;;;;;;;;;;18.89;61.78;-18535.25;5002630;28;19925;-82
2023/05/29 10:55:58;;;;;;;;;;;;;;;19.19;58.57;-18543.16;5003003;28;19924;-82
2023/05/29 10:58:24;;;;;;;;;;;;;;;19.33;56.95;-18546.97;5000027;28;19969;-83
2023/05/29 11:00:50;;;;;;;;;;;;;;;19.23;56.31;-18544.25;5003316;28;19968;-81
2023/05/29 11:03:20;;;;;;;;;;;;;;;19.11;55.99;-18541.25;4985248;28;19926;-81
2023/05/29 11:06:05;;;;;;;;;;;;;;;19.09;54.82;-18540.56;5001104;28;19929;-80
2023/05/29 11:08:49;;;;;;;;;;;;;;;19.53;55.34;-18552.28;4988489;28;19988;-80
2023/05/29 11:11:15;;;;;;;;;;;;;;;19.30;55.70;-18546.16;4954512;28;21343;-82
2023/05/29 11:13:44;;;;;;;;;;;;;;;19.48;57.26;-18551.06;5001062;28;19925;-81
2023/05/29 11:16:09;;;;;;;;;;;;;;;19.78;55.59;-18558.97;5003495;28;19921;-81
2023/05/29 11:18:39;;;;;;;;;;;;;;;19.50;55.56;-18551.59;5003639;28;19944;-81
2023/05/29 11:21:06;;;;;;;;;;;;;;;19.89;56.91;-18561.97;5000654;28;19934;-81
2023/05/29 11:23:31;;;;;;;;;;;;;;;19.94;53.93;-18563.31;4987042;28;19932;-81
2023/05/29 11:25:57;;;;;;;;;;;;;;;19.87;53.60;-18561.41;5005932;28;19922;-82
2023/05/29 11:28:22;;;;;;;;;;;;;;;20.03;55.10;-18565.63;5008126;28;19921;-81
2023/05/29 11:30:48;;;;;;;;;;;;;;;20.14;53.24;-18568.63;5002449;28;19922;-81
2023/05/29 11:33:25;;;;;;;;;;;;;;;20.29;55.94;-18572.59;5007195;28;19930;-81
2023/05/29 11:35:55;;;;;;;;;;;;;;;20.35;52.67;-18574.22;5006373;28;19929;-82
2023/05/29 11:38:20;;;;;;;;;;;;;;;20.04;54.39;-18566.03;5005194;28;19932;-82
2023/05/29 11:40:45;;;;;;;;;;;;;;;19.70;51.17;-18556.94;5006611;28;19921;-82
2023/05/29 11:43:12;;;;;;;;;;;;;;;19.80;49.91;-18559.66;4997007;28;20010;-82
2023/05/29 11:45:37;;;;;;;;;;;;;;;19.99;50.09;-18564.69;5002326;28;19924;-81
2023/05/29 11:48:03;;;;;;;;;;;;;;;20.33;50.35;-18573.53;4990179;28;19921;-82
2023/05/29 11:50:30;;;;;;;;;;;;;;;20.12;47.88;-18567.97;5007386;28;19925;-81
2023/05/29 11:52:56;;;;;;;;;;;;;;;20.12;47.49;-18567.97;5005358;28;19933;-82
2023/05/29 11:55:21;;;;;;;;;;;;;;;20.38;47.53;-18574.91;5005787;28;19917;-82
2023/05/29 11:57:47;;;;;;;;;;;;;;;20.59;47.48;-18580.47;5005605;28;19948;-81
2023/05/29 12:00:13;;;;;;;;;;;;;;;20.71;44.89;-18583.88;5006748;28;19944;-81
2023/05/29 12:02:38;;;;;;;;;;;;;;;20.66;45.66;-18582.38;4975732;28;19922;-81
2023/05/29 12:05:04;;;;;;;;;;;;;;;20.44;43.59;-18576.66;4988364;28;19924;-82
2023/05/29 12:07:30;;;;;;;;;;;;;;;20.61;43.55;-18581.03;4982845;28;19925;-82
2023/05/29 12:09:57;;;;;;;;;;;;;;;20.68;42.71;-18582.94;5004019;28;19976;-81
2023/05/29 12:12:23;;;;;;;;;;;;;;;20.73;43.80;-18584.41;5008790;28;19984;-81
2023/05/29 12:14:52;;;;;;;;;;;;;;;20.37;43.38;-18574.63;5005153;28;19917;-80
2023/05/29 12:17:17;;;;;;;;;;;;;;;20.39;44.45;-18575.31;5010003;28;19967;-81
2023/05/29 12:19:43;;;;;;;;;;;;;;;20.33;44.75;-18573.66;4996702;28;19925;-81
2023/05/29 12:22:08;;;;;;;;;;;;;;;20.16;45.96;-18569.03;5018441;28;20524;-80
2023/05/29 12:24:34;;;;;;;;;;;;;;;20.08;44.16;-18567.00;5013607;28;19925;-80